createdAt,value
2022-08-21T00:02:16.819Z,99633.38
2022-08-21T00:04:57.001Z,99646.72
2022-08-21T00:07:27.907Z,99633.31
2022-08-21T00:09:57.573Z,99633.66
2022-08-21T00:12:28.365Z,99640.00
2022-08-21T00:14:58.245Z,99637.63
2022-08-21T00:17:28.362Z,99635.66
2022-08-21T00:19:59.022Z,99627.38
2022-08-21T00:22:28.454Z,99634.44
2022-08-21T00:24:57.973Z,99630.06
2022-08-21T00:27:27.553Z,99640.31
2022-08-21T00:29:57.627Z,99626.09
2022-08-21T00:32:28.788Z,99635.53
2022-08-21T00:35:00.003Z,99628.44
2022-08-21T00:37:30.517Z,99632.34
2022-08-21T00:40:01.155Z,99625.59
2022-08-21T00:42:32.842Z,99624.41
2022-08-21T00:45:03.457Z,99624.81
2022-08-21T00:47:33.218Z,99620.44
2022-08-21T00:50:04.626Z,99625.91
2022-08-21T00:52:35.103Z,99626.16
2022-08-21T00:55:06.008Z,99626.34
2022-08-21T00:57:43.150Z,99627.91
2022-08-21T01:00:18.497Z,99629.03
2022-08-21T01:02:48.308Z,99629.00
2022-08-21T01:05:19.431Z,99625.06
2022-08-21T01:07:48.991Z,99636.84
2022-08-21T01:10:24.044Z,99627.00
2022-08-21T01:12:56.258Z,99633.28
2022-08-21T01:15:29.825Z,99637.56
2022-08-21T01:17:59.758Z,99638.28
2022-08-21T01:20:32.322Z,99628.84
2022-08-21T01:23:06.569Z,99624.50
2022-08-21T01:25:36.777Z,99611.78
2022-08-21T01:28:13.581Z,99627.53
2022-08-21T01:30:44.801Z,99615.69
2022-08-21T01:33:14.209Z,99620.81
2022-08-21T01:35:43.596Z,99622.75
2022-08-21T01:38:16.325Z,99623.56
2022-08-21T01:40:45.893Z,99620.78
2022-08-21T01:43:15.303Z,99625.09
2022-08-21T01:45:44.772Z,99617.53
2022-08-21T01:48:14.166Z,99622.28
2022-08-21T01:50:43.775Z,99617.53
2022-08-21T01:53:16.502Z,99626.25
2022-08-21T01:55:46.662Z,99623.03
2022-08-21T01:58:17.603Z,99625.00
2022-08-21T02:00:46.728Z,99630.09
2022-08-21T02:03:34.974Z,99624.91
2022-08-21T02:06:05.730Z,99628.50
2022-08-21T02:08:37.172Z,99634.38
2022-08-21T02:11:06.588Z,99631.25
2022-08-21T02:13:36.049Z,99629.19
2022-08-21T02:16:06.603Z,99628.88
2022-08-21T02:18:36.123Z,99624.91
2022-08-21T02:21:07.074Z,99625.28
2022-08-21T02:23:37.992Z,99630.84
2022-08-21T02:26:10.299Z,99631.59
2022-08-21T02:28:40.555Z,99630.31
2022-08-21T02:31:09.818Z,99625.19
2022-08-21T02:33:40.604Z,99632.69
2022-08-21T02:36:11.386Z,99633.09
2022-08-21T02:38:44.216Z,99639.84
2022-08-21T02:41:15.639Z,99642.53
2022-08-21T02:43:45.324Z,99636.22
2022-08-21T02:46:17.409Z,99637.00
2022-08-21T02:48:47.413Z,99633.09
2022-08-21T02:51:20.094Z,99631.22
2022-08-21T02:53:51.808Z,99632.41
2022-08-21T02:56:23.588Z,99632.38
2022-08-21T02:58:54.079Z,99627.75
2022-08-21T03:01:26.119Z,99638.03
2022-08-21T03:03:56.682Z,99632.06
2022-08-21T03:06:27.541Z,99647.84
2022-08-21T03:08:58.814Z,99641.50
2022-08-21T03:11:28.143Z,99639.56
2022-08-21T03:13:57.711Z,99630.88
2022-08-21T03:16:30.979Z,99632.16
2022-08-21T03:19:04.391Z,99632.91
2022-08-21T03:21:34.648Z,99641.22
2022-08-21T03:24:07.962Z,99636.56
2022-08-21T03:26:37.379Z,99641.63
2022-08-21T03:29:10.288Z,99640.03
2022-08-21T03:31:41.120Z,99642.81
2022-08-21T03:34:10.584Z,99657.38
2022-08-21T03:36:39.843Z,99643.59
2022-08-21T03:39:10.470Z,99645.25
2022-08-21T03:41:40.227Z,99647.19
2022-08-21T03:44:10.411Z,99646.47
2022-08-21T03:46:41.198Z,99656.75
2022-08-21T03:49:11.225Z,99651.63
2022-08-21T03:51:43.816Z,99645.00
2022-08-21T03:54:15.166Z,99649.00
2022-08-21T03:56:44.651Z,99647.03
2022-08-21T03:59:14.563Z,99650.22
2022-08-21T04:01:54.794Z,99646.75
2022-08-21T04:04:24.552Z,99645.91
2022-08-21T04:06:54.955Z,99645.53
2022-08-21T04:09:25.533Z,99638.53
2022-08-21T04:11:55.606Z,99634.97
2022-08-21T04:14:25.261Z,99643.31
2022-08-21T04:16:54.898Z,99638.63
2022-08-21T04:19:26.152Z,99645.38
2022-08-21T04:21:56.194Z,99640.69
2022-08-21T04:24:27.536Z,99642.72
2022-08-21T04:27:00.778Z,99645.88
2022-08-21T04:29:30.241Z,99639.19
2022-08-21T04:31:59.569Z,99649.03
2022-08-21T04:34:29.239Z,99645.88
2022-08-21T04:36:59.064Z,99640.75
2022-08-21T04:39:29.958Z,99645.94
2022-08-21T04:41:58.912Z,99643.63
2022-08-21T04:44:28.268Z,99651.53
2022-08-21T04:46:57.808Z,99657.91
2022-08-21T04:49:27.850Z,99652.75
2022-08-21T04:51:57.907Z,99660.28
2022-08-21T04:54:28.919Z,99658.34
2022-08-21T04:57:01.641Z,99648.47
2022-08-21T04:59:34.316Z,99644.94
2022-08-21T05:02:04.889Z,99650.06
2022-08-21T05:04:37.967Z,99649.28
2022-08-21T05:07:14.691Z,99655.59
2022-08-21T05:09:45.948Z,99656.41
2022-08-21T05:12:16.065Z,99656.03
2022-08-21T05:14:45.661Z,99652.06
2022-08-21T05:17:15.684Z,99657.66
2022-08-21T05:19:45.272Z,99654.47
2022-08-21T05:22:22.193Z,99638.69
2022-08-21T05:24:53.874Z,99652.09
2022-08-21T05:27:31.636Z,99645.00
2022-08-21T05:30:04.087Z,99643.44
2022-08-21T05:32:34.126Z,99651.72
2022-08-21T05:35:05.118Z,99648.97
2022-08-21T05:37:35.366Z,99647.78
2022-08-21T05:40:21.645Z,99656.47
2022-08-21T05:42:56.841Z,99652.53
2022-08-21T05:45:42.641Z,99645.41
2022-08-21T05:48:16.894Z,99650.16
2022-08-21T05:50:52.399Z,99643.81
2022-08-21T05:53:27.258Z,99639.84
2022-08-21T05:55:58.488Z,99644.16
2022-08-21T05:58:29.219Z,99642.97
2022-08-21T06:01:00.136Z,99647.28
2022-08-21T06:03:32.455Z,99643.69
2022-08-21T06:06:02.932Z,99643.69
2022-08-21T06:08:35.906Z,99638.97
2022-08-21T06:11:08.494Z,99640.47
2022-08-21T06:13:40.131Z,99630.50
2022-08-21T06:16:10.611Z,99628.47
2022-08-21T06:18:41.851Z,99633.13
2022-08-21T06:21:12.595Z,99635.84
2022-08-21T06:23:46.517Z,99630.97
2022-08-21T06:26:17.701Z,99631.88
2022-08-21T06:28:47.994Z,99625.38
2022-08-21T06:31:20.704Z,99624.09
2022-08-21T06:33:51.472Z,99625.06
2022-08-21T06:36:21.936Z,99627.03
2022-08-21T06:38:51.995Z,99625.00
2022-08-21T06:41:26.548Z,99616.53
2022-08-21T06:43:58.754Z,99618.56
2022-08-21T06:46:30.373Z,99628.34
2022-08-21T06:49:04.381Z,99632.13
2022-08-21T06:51:35.532Z,99629.19
2022-08-21T06:54:10.873Z,99624.56
2022-08-21T06:56:41.701Z,99622.97
2022-08-21T06:59:17.153Z,99624.38
2022-08-21T07:01:47.551Z,99617.22
2022-08-21T07:04:17.224Z,99611.72
2022-08-21T07:06:46.948Z,99619.03
2022-08-21T07:09:16.568Z,99611.06
2022-08-21T07:11:55.944Z,99611.22
2022-08-21T07:14:25.854Z,99604.47
2022-08-21T07:16:56.815Z,99608.72
2022-08-21T07:19:26.324Z,99604.34
2022-08-21T07:21:59.459Z,99604.94
2022-08-21T07:24:30.451Z,99602.81
2022-08-21T07:27:01.005Z,99606.03
2022-08-21T07:29:30.324Z,99606.19
2022-08-21T07:32:02.391Z,99608.31
2022-08-21T07:34:34.500Z,99618.34
2022-08-21T07:37:06.333Z,99609.91
2022-08-21T07:39:39.645Z,99617.38
2022-08-21T07:42:11.214Z,99614.25
2022-08-21T07:44:41.180Z,99621.59
2022-08-21T07:47:11.713Z,99610.81
2022-08-21T07:49:41.570Z,99604.19
2022-08-21T07:52:12.344Z,99598.16
2022-08-21T07:54:41.900Z,99599.28
2022-08-21T07:57:12.501Z,99599.03
2022-08-21T07:59:41.918Z,99601.16
2022-08-21T08:02:13.004Z,99599.38
2022-08-21T08:04:50.717Z,99595.13
2022-08-21T08:07:21.780Z,99590.25
2022-08-21T08:09:51.929Z,99588.41
2022-08-21T08:12:30.333Z,99586.94
2022-08-21T08:15:00.769Z,99587.66
2022-08-21T08:17:36.360Z,99586.44
2022-08-21T08:20:08.747Z,99583.94
2022-08-21T08:22:40.240Z,99580.13
2022-08-21T08:25:13.581Z,99587.66
2022-08-21T08:27:44.925Z,99579.06
2022-08-21T08:30:19.744Z,99580.13
2022-08-21T08:32:51.893Z,99586.38
2022-08-21T08:35:24.843Z,99581.28
2022-08-21T08:37:56.146Z,99575.13
2022-08-21T08:40:36.858Z,99576.50
2022-08-21T08:43:09.957Z,99563.50
2022-08-21T08:45:49.639Z,99567.97
2022-08-21T08:48:47.180Z,99559.13
2022-08-21T08:51:28.395Z,99571.84
2022-08-21T08:54:08.286Z,99573.53
2022-08-21T08:56:39.907Z,99573.03
2022-08-21T08:59:21.801Z,99575.97
2022-08-21T09:01:54.550Z,99581.63
2022-08-21T09:04:30.435Z,99583.06
2022-08-21T09:07:12.631Z,99580.03
2022-08-21T09:09:58.257Z,99569.00
2022-08-21T09:12:40.544Z,99573.47
2022-08-21T09:15:23.298Z,99570.03
2022-08-21T09:18:11.526Z,99563.97
2022-08-21T09:20:59.536Z,99568.25
2022-08-21T09:23:39.409Z,99568.22
2022-08-21T09:26:15.558Z,99560.75
2022-08-21T09:28:45.596Z,99563.16
2022-08-21T09:31:26.262Z,99570.06
2022-08-21T09:34:01.512Z,99571.28
2022-08-21T09:36:39.611Z,99564.34
2022-08-21T09:39:11.891Z,99563.81
2022-08-21T09:41:42.317Z,99568.94
2022-08-21T09:44:13.063Z,99566.94
2022-08-21T09:46:52.878Z,99566.22
2022-08-21T09:49:41.593Z,99563.84
2022-08-21T09:52:20.835Z,99568.09
2022-08-21T09:54:54.322Z,99559.94
2022-08-21T09:57:50.565Z,99558.72
2022-08-21T10:00:30.891Z,99556.69
2022-08-21T10:03:26.210Z,99568.31
2022-08-21T10:06:09.158Z,99567.66
2022-08-21T10:08:41.545Z,99567.75
2022-08-21T10:11:16.917Z,99560.16
2022-08-21T10:13:59.317Z,99557.47
2022-08-21T10:16:41.186Z,99557.69
2022-08-21T10:19:27.785Z,99553.19
2022-08-21T10:22:10.809Z,99549.28
2022-08-21T10:24:50.948Z,99543.19
2022-08-21T10:27:28.726Z,99547.69
2022-08-21T10:30:05.851Z,99554.31
2022-08-21T10:33:00.099Z,99545.53
2022-08-21T10:35:37.688Z,99541.91
2022-08-21T10:38:55.220Z,99538.44
2022-08-21T10:41:49.972Z,99539.88
2022-08-21T10:44:32.922Z,99527.38
2022-08-21T10:47:13.432Z,99521.91
2022-08-21T10:49:51.461Z,99525.72
2022-08-21T10:52:54.700Z,99523.44
2022-08-21T10:55:27.928Z,99520.16
2022-08-21T10:58:13.830Z,99517.16
2022-08-21T11:00:56.766Z,99515.16
2022-08-21T11:03:34.399Z,99512.50
2022-08-21T11:06:13.553Z,99524.22
2022-08-21T11:08:48.562Z,99526.25
2022-08-21T11:11:23.801Z,99524.44
2022-08-21T11:14:01.080Z,99523.78
2022-08-21T11:16:40.136Z,99526.47
2022-08-21T11:19:16.544Z,99527.38
2022-08-21T11:21:52.387Z,99523.53
2022-08-21T11:24:33.372Z,99529.59
2022-08-21T11:27:12.422Z,99519.09
2022-08-21T11:29:45.319Z,99526.69
2022-08-21T11:32:42.496Z,99527.19
2022-08-21T11:35:22.730Z,99514.97
2022-08-21T11:38:07.779Z,99514.19
2022-08-21T11:40:55.326Z,99515.06
2022-08-21T11:43:34.980Z,99505.88
2022-08-21T11:46:19.290Z,99501.84
2022-08-21T11:49:01.763Z,99503.25
2022-08-21T11:51:36.824Z,99497.03
2022-08-21T11:54:19.176Z,99502.38
2022-08-21T11:57:00.670Z,99486.19
2022-08-21T11:59:40.867Z,99492.00
2022-08-21T12:02:16.187Z,99488.84
2022-08-21T12:04:52.100Z,99488.25
2022-08-21T12:07:37.509Z,99499.44
2022-08-21T12:10:11.405Z,99493.94
2022-08-21T12:12:45.421Z,99494.19
2022-08-21T12:15:31.422Z,99496.84
2022-08-21T12:18:04.415Z,99501.75
2022-08-21T12:20:50.845Z,99501.91
2022-08-21T12:23:48.795Z,99499.84
2022-08-21T12:26:28.792Z,99503.41
2022-08-21T12:29:24.189Z,99508.78
2022-08-21T12:32:00.994Z,99507.69
2022-08-21T12:34:40.680Z,99508.34
2022-08-21T12:37:23.621Z,99492.78
2022-08-21T12:39:59.010Z,99502.41
2022-08-21T12:42:44.016Z,99506.69
2022-08-21T12:45:22.269Z,99494.59
2022-08-21T12:47:56.182Z,99485.44
2022-08-21T12:50:37.285Z,99494.28
2022-08-21T12:53:18.605Z,99480.16
2022-08-21T12:55:52.585Z,99486.88
2022-08-21T12:58:24.052Z,99464.03
2022-08-21T13:00:58.316Z,99482.63
2022-08-21T13:03:30.091Z,99474.34
2022-08-21T13:06:02.324Z,99482.09
2022-08-21T13:08:40.137Z,99484.81
2022-08-21T13:11:14.939Z,99477.38
2022-08-21T13:13:51.082Z,99474.78
2022-08-21T13:16:32.006Z,99474.06
2022-08-21T13:19:06.995Z,99475.81
2022-08-21T13:21:45.551Z,99469.09
2022-08-21T13:24:41.952Z,99467.88
2022-08-21T13:27:26.895Z,99473.31
2022-08-21T13:30:12.509Z,99475.44
2022-08-21T13:32:46.507Z,99471.09
2022-08-21T13:35:20.441Z,99480.50
2022-08-21T13:37:52.847Z,99477.69
2022-08-21T13:40:28.533Z,99477.59
2022-08-21T13:43:00.093Z,99471.66
2022-08-21T13:45:35.893Z,99468.16
2022-08-21T13:48:07.964Z,99452.66
2022-08-21T13:50:44.755Z,99469.97
2022-08-21T13:53:26.254Z,99460.81
2022-08-21T13:56:00.356Z,99466.19
2022-08-21T13:58:33.789Z,99460.03
2022-08-21T14:01:07.692Z,99457.22
2022-08-21T14:03:44.986Z,99448.28
2022-08-21T14:06:18.041Z,99449.31
2022-08-21T14:08:54.241Z,99449.72
2022-08-21T14:11:28.860Z,99456.91
2022-08-21T14:14:05.169Z,99459.47
2022-08-21T14:16:47.965Z,99453.09
2022-08-21T14:19:39.981Z,99452.78
2022-08-21T14:22:39.970Z,99461.72
2022-08-21T14:25:14.344Z,99459.09
2022-08-21T14:27:47.541Z,99457.63
2022-08-21T14:30:23.407Z,99462.13
2022-08-21T14:33:04.572Z,99464.22
2022-08-21T14:35:36.628Z,99464.91
2022-08-21T14:38:17.167Z,99459.75
2022-08-21T14:40:51.780Z,99462.22
2022-08-21T14:43:25.366Z,99470.03
2022-08-21T14:45:58.989Z,99465.78
2022-08-21T14:48:30.772Z,99461.97
2022-08-21T14:51:02.864Z,99459.72
2022-08-21T14:53:33.058Z,99454.53
2022-08-21T14:56:08.437Z,99446.72
2022-08-21T14:58:41.728Z,99455.09
2022-08-21T15:01:14.231Z,99453.19
2022-08-21T15:03:47.525Z,99454.19
2022-08-21T15:06:22.255Z,99453.41
2022-08-21T15:08:53.126Z,99445.19
2022-08-21T15:11:41.832Z,99446.56
2022-08-21T15:14:21.298Z,99446.59
2022-08-21T15:16:55.000Z,99449.69
2022-08-21T15:19:28.605Z,99453.03
2022-08-21T15:22:00.793Z,99453.13
2022-08-21T15:24:37.945Z,99450.22
2022-08-21T15:27:11.739Z,99449.53
2022-08-21T15:29:47.295Z,99458.31
2022-08-21T15:32:26.896Z,99452.56
2022-08-21T15:34:59.211Z,99444.38
2022-08-21T15:37:33.874Z,99451.81
2022-08-21T15:40:08.424Z,99451.97
2022-08-21T15:42:40.526Z,99439.66
2022-08-21T15:45:14.248Z,99438.34
2022-08-21T15:47:53.962Z,99437.13
2022-08-21T15:50:28.059Z,99444.63
2022-08-21T15:53:02.079Z,99441.41
2022-08-21T15:55:32.268Z,99440.81
2022-08-21T15:58:05.892Z,99431.16
2022-08-21T16:00:40.859Z,99434.63
2022-08-21T16:03:13.670Z,99431.72
2022-08-21T16:05:44.786Z,99433.56
2022-08-21T16:08:17.728Z,99439.94
2022-08-21T16:10:49.069Z,99439.34
2022-08-21T16:13:24.245Z,99435.84
2022-08-21T16:15:55.006Z,99438.47
2022-08-21T16:18:30.376Z,99438.81
2022-08-21T16:21:15.354Z,99438.34
2022-08-21T16:23:50.304Z,99429.47
2022-08-21T16:26:21.159Z,99430.56
2022-08-21T16:28:59.413Z,99434.06
2022-08-21T16:31:36.926Z,99430.41
2022-08-21T16:34:20.253Z,99429.19
2022-08-21T16:36:52.019Z,99426.41
2022-08-21T16:39:24.230Z,99424.38
2022-08-21T16:41:57.005Z,99427.22
2022-08-21T16:44:30.138Z,99423.44
2022-08-21T16:47:05.745Z,99419.91
2022-08-21T16:49:36.578Z,99419.47
2022-08-21T16:52:09.387Z,99419.06
2022-08-21T16:54:43.847Z,99425.09
2022-08-21T16:57:18.013Z,99431.19
2022-08-21T16:59:50.594Z,99431.72
2022-08-21T17:02:33.120Z,99429.28
2022-08-21T17:05:11.390Z,99431.50
2022-08-21T17:07:47.833Z,99435.34
2022-08-21T17:10:20.594Z,99432.47
2022-08-21T17:12:58.435Z,99434.91
2022-08-21T17:15:33.253Z,99431.31
2022-08-21T17:18:12.167Z,99441.41
2022-08-21T17:20:55.098Z,99436.75
2022-08-21T17:23:28.368Z,99431.16
2022-08-21T17:26:01.699Z,99433.06
2022-08-21T17:28:36.164Z,99428.84
2022-08-21T17:31:17.328Z,99429.41
2022-08-21T17:33:56.457Z,99437.91
2022-08-21T17:36:32.004Z,99436.78
2022-08-21T17:39:06.371Z,99434.56
2022-08-21T17:41:38.703Z,99434.88
2022-08-21T17:44:13.281Z,99442.41
2022-08-21T17:46:46.105Z,99438.00
2022-08-21T17:49:17.306Z,99444.41
2022-08-21T17:51:49.978Z,99442.69
2022-08-21T17:54:21.553Z,99444.41
2022-08-21T17:56:57.177Z,99445.63
2022-08-21T17:59:30.292Z,99447.69
2022-08-21T18:02:01.828Z,99445.28
2022-08-21T18:04:36.348Z,99447.13
2022-08-21T18:07:08.271Z,99447.19
2022-08-21T18:09:41.307Z,99455.81
2022-08-21T18:12:15.386Z,99446.00
2022-08-21T18:14:47.152Z,99438.16
2022-08-21T18:17:22.074Z,99444.47
2022-08-21T18:19:52.705Z,99430.41
2022-08-21T18:22:27.970Z,99435.22
2022-08-21T18:24:58.307Z,99437.41
2022-08-21T18:27:33.235Z,99440.44
2022-08-21T18:30:10.550Z,99439.41
2022-08-21T18:32:40.744Z,99438.88
2022-08-21T18:35:14.672Z,99437.88
2022-08-21T18:37:45.519Z,99438.41
2022-08-21T18:40:17.731Z,99447.06
2022-08-21T18:42:55.435Z,99443.94
2022-08-21T18:45:27.707Z,99448.38
2022-08-21T18:47:59.806Z,99446.41
2022-08-21T18:50:34.481Z,99454.31
2022-08-21T18:53:07.954Z,99449.66
2022-08-21T18:58:58.471Z,99452.44
2022-08-21T19:01:29.250Z,99452.16
2022-08-21T19:04:01.003Z,99448.94
2022-08-21T19:06:34.001Z,99458.13
2022-08-21T19:09:06.523Z,99452.13
2022-08-21T19:11:43.093Z,99454.50
2022-08-21T19:14:38.541Z,99459.94
2022-08-21T19:17:10.275Z,99459.72
2022-08-21T19:19:40.444Z,99452.53
2022-08-21T19:22:14.775Z,99463.19
2022-08-21T19:24:50.821Z,99459.25
2022-08-21T19:27:21.011Z,99454.03
2022-08-21T19:29:55.779Z,99457.94
2022-08-21T19:32:26.850Z,99453.59
2022-08-21T19:34:58.089Z,99461.81
2022-08-21T19:37:30.154Z,99453.84
2022-08-21T19:40:01.142Z,99458.09
2022-08-21T19:42:34.894Z,99459.34
2022-08-21T19:45:09.622Z,99449.47
2022-08-21T19:47:44.030Z,99457.34
2022-08-21T19:50:21.371Z,99455.41
2022-08-21T19:52:52.850Z,99451.78
2022-08-21T19:55:25.800Z,99451.06
2022-08-21T19:58:01.749Z,99446.22
2022-08-21T20:00:32.769Z,99442.00
2022-08-21T20:03:04.893Z,99450.69
2022-08-21T20:05:44.357Z,99453.06
2022-08-21T20:08:20.189Z,99454.81
2022-08-21T20:10:53.601Z,99456.72
2022-08-21T20:13:32.993Z,99453.53
2022-08-21T20:16:07.983Z,99450.81
2022-08-21T20:21:44.191Z,99457.63
2022-08-21T20:24:24.101Z,99455.72
2022-08-21T20:27:00.722Z,99450.66
2022-08-21T20:29:39.135Z,99456.91
2022-08-21T20:32:12.693Z,99454.13
2022-08-21T20:34:51.988Z,99444.63
2022-08-21T20:37:36.986Z,99449.91
2022-08-21T20:40:15.614Z,99458.59
2022-08-21T20:42:54.481Z,99454.31
2022-08-21T20:45:34.606Z,99466.69
2022-08-21T20:48:12.339Z,99458.09
2022-08-21T20:50:48.740Z,99462.47
2022-08-21T20:53:25.825Z,99457.53
2022-08-21T20:56:11.508Z,99462.63
2022-08-21T20:58:58.114Z,99461.72
2022-08-21T21:01:35.543Z,99457.53
2022-08-21T21:04:19.652Z,99457.53
2022-08-21T21:06:53.377Z,99457.53
2022-08-21T21:09:40.302Z,99458.03
2022-08-21T21:12:18.548Z,99458.19
2022-08-21T21:15:02.163Z,99450.28
2022-08-21T21:17:44.159Z,99449.78
2022-08-21T21:20:22.059Z,99443.06
2022-08-21T21:23:05.329Z,99448.59
2022-08-21T21:25:53.876Z,99455.38
2022-08-21T21:28:30.842Z,99454.25
2022-08-21T21:31:00.488Z,99449.22
2022-08-21T21:33:34.355Z,99449.59
2022-08-21T21:36:14.748Z,99460.66
2022-08-21T21:39:02.135Z,99465.16
2022-08-21T21:41:44.970Z,99462.94
2022-08-21T21:44:28.963Z,99456.22
2022-08-21T21:47:08.333Z,99459.97
2022-08-21T21:49:52.499Z,99454.84
2022-08-21T22:06:12.771Z,99448.09
2022-08-21T22:08:51.513Z,99452.47
2022-08-21T22:14:22.808Z,99444.19
2022-08-21T22:16:52.711Z,99454.06
2022-08-21T22:19:26.135Z,99455.28
2022-08-21T22:22:09.360Z,99454.41
2022-08-21T22:24:44.750Z,99450.09
2022-08-21T22:27:20.179Z,99450.84
2022-08-21T22:29:54.124Z,99446.91
2022-08-21T22:32:28.876Z,99451.69
2022-08-21T22:35:09.456Z,99455.22
2022-08-21T22:37:43.167Z,99449.72
2022-08-21T22:40:15.920Z,99456.03
2022-08-21T22:42:59.272Z,99455.94
2022-08-21T22:46:06.193Z,99460.16
2022-08-21T22:48:55.877Z,99454.31
2022-08-21T22:51:32.662Z,99456.44
2022-08-21T22:54:16.491Z,99454.41
2022-08-21T22:56:49.530Z,99462.78
2022-08-21T22:59:26.925Z,99455.63
2022-08-21T23:02:03.827Z,99462.72
2022-08-21T23:04:34.727Z,99463.19
2022-08-21T23:07:06.103Z,99454.91
2022-08-21T23:09:39.940Z,99458.06
2022-08-21T23:12:32.961Z,99455.59
2022-08-21T23:15:09.514Z,99461.22
2022-08-21T23:17:50.294Z,99458.44
2022-08-21T23:20:25.649Z,99458.84
2022-08-21T23:23:05.088Z,99461.66
2022-08-21T23:25:56.559Z,99453.66
2022-08-21T23:28:40.752Z,99466.41
2022-08-21T23:31:25.175Z,99459.25
2022-08-21T23:34:11.728Z,99468.38
2022-08-21T23:37:25.139Z,99468.72
2022-08-21T23:40:31.970Z,99460.81
2022-08-21T23:43:13.059Z,99466.03
2022-08-21T23:45:56.527Z,99468.41
2022-08-21T23:48:39.281Z,99473.56
2022-08-21T23:51:14.812Z,99462.88
2022-08-21T23:53:58.712Z,99474.28
2022-08-21T23:56:52.265Z,99474.69
2022-08-21T23:59:35.589Z,99469.63
